Time;durP1;ratioP1;P1;durP2;ratioP2;P2;SDS_P1;SDS_P2;PMS_P1;PMS_P2;Temp;Humidity;BMP_temperature;BMP_pressure;BME280_temperature;BME280_humidity;BME280_pressure;Samples;Min_cycle;Max_cycle;Signal;HPM_P1;HPM_P2
2022/06/16 00:00:59;;;;;;;1.10;0.80;;;21.60;1.00;;;;;;5079160;28;20449;-75
2022/06/16 00:03:27;;;;;;;1.27;0.73;;;21.60;1.00;;;;;;5097065;28;20888;-75
2022/06/16 00:05:54;;;;;;;1.20;0.80;;;21.60;1.00;;;;;;5096846;28;20414;-75
2022/06/16 00:08:21;;;;;;;2.07;0.70;;;21.60;1.00;;;;;;5096256;28;20893;-75
2022/06/16 00:13:46;;;;;;;1.03;0.70;;;21.50;1.00;;;;;;5056708;28;20427;-75
2022/06/16 00:16:16;;;;;;;1.10;0.80;;;21.40;1.00;;;;;;5056473;28;20446;-75
2022/06/16 00:18:43;;;;;;;1.10;0.70;;;21.40;1.00;;;;;;5056683;28;20431;-74
2022/06/16 00:21:11;;;;;;;1.43;0.80;;;21.40;1.00;;;;;;5056992;28;20412;-74
2022/06/16 00:23:42;;;;;;;1.00;0.80;;;21.30;1.00;;;;;;5055498;28;20444;-74
2022/06/16 00:26:14;;;;;;;1.30;0.90;;;21.40;1.00;;;;;;5056617;28;20416;-74
2022/06/16 00:28:49;;;;;;;0.87;0.70;;;21.40;1.00;;;;;;5056714;28;20435;-74
2022/06/16 00:31:22;;;;;;;1.10;0.90;;;21.40;1.00;;;;;;5056010;28;20509;-74
2022/06/16 00:33:50;;;;;;;1.00;0.83;;;21.30;1.00;;;;;;5056544;28;20432;-74
2022/06/16 00:36:20;;;;;;;1.13;0.80;;;21.30;1.00;;;;;;5056322;28;20509;-75
2022/06/16 00:38:48;;;;;;;1.20;0.70;;;21.30;1.00;;;;;;5056219;28;20816;-74
2022/06/16 00:41:15;;;;;;;1.73;0.70;;;21.20;1.00;;;;;;5056317;28;20497;-74
2022/06/16 00:43:44;;;;;;;0.80;0.70;;;21.20;1.00;;;;;;5056656;28;20444;-74
2022/06/16 00:46:17;;;;;;;1.37;0.70;;;21.20;1.00;;;;;;5056166;28;20517;-74
2022/06/16 00:48:50;;;;;;;1.00;0.70;;;21.10;1.00;;;;;;5055846;28;20455;-74
2022/06/16 00:51:28;;;;;;;1.00;0.70;;;21.10;1.00;;;;;;5056239;28;20430;-73
2022/06/16 00:54:01;;;;;;;0.83;0.80;;;21.00;1.00;;;;;;5056641;28;20851;-73
2022/06/16 00:56:31;;;;;;;1.00;0.80;;;21.00;1.00;;;;;;5056823;28;20534;-76
2022/06/16 00:59:03;;;;;;;0.90;0.70;;;21.00;1.00;;;;;;5056373;28;20728;-73
2022/06/16 01:01:32;;;;;;;1.07;0.80;;;21.00;1.00;;;;;;5055999;28;20464;-74
2022/06/16 01:06:45;;;;;;;1.00;0.80;;;20.90;1.00;;;;;;5056288;28;20869;-74
2022/06/16 01:09:14;;;;;;;1.20;0.90;;;20.90;1.00;;;;;;5056159;28;20514;-75
2022/06/16 01:14:59;;;;;;;1.10;0.77;;;20.90;1.00;;;;;;5096621;28;20550;-75
2022/06/16 01:17:35;;;;;;;0.93;0.67;;;20.80;1.00;;;;;;5092952;28;20501;-75
2022/06/16 01:20:19;;;;;;;1.33;0.83;;;20.80;1.00;;;;;;5097568;28;20453;-75
2022/06/16 01:23:30;;;;;;;1.53;0.80;;;20.80;1.00;;;;;;5100722;28;20456;-75
2022/06/16 01:26:14;;;;;;;1.10;0.80;;;20.80;1.00;;;;;;5062702;28;20440;-75
2022/06/16 01:29:06;;;;;;;1.37;0.77;;;20.80;1.00;;;;;;5099408;28;20445;-75
2022/06/16 01:31:41;;;;;;;1.00;0.80;;;20.80;1.00;;;;;;5099417;28;20457;-76
2022/06/16 01:34:14;;;;;;;1.23;0.83;;;20.80;1.00;;;;;;5100193;28;20445;-76
2022/06/16 01:36:52;;;;;;;1.17;0.80;;;20.70;1.00;;;;;;5099494;28;20566;-75
2022/06/16 01:39:27;;;;;;;1.97;0.80;;;20.70;1.00;;;;;;5099090;28;20464;-74
2022/06/16 01:42:00;;;;;;;1.63;0.90;;;20.70;1.00;;;;;;5099119;28;20436;-75
2022/06/16 01:44:36;;;;;;;1.13;0.80;;;20.70;1.00;;;;;;5098918;28;20433;-74
2022/06/16 01:47:13;;;;;;;1.07;0.80;;;20.70;1.00;;;;;;5099280;28;20456;-74
2022/06/16 01:49:44;;;;;;;1.10;0.80;;;20.80;1.00;;;;;;5099358;28;20476;-74
2022/06/16 01:52:17;;;;;;;1.20;0.90;;;20.80;1.00;;;;;;5098913;28;20461;-74
2022/06/16 01:54:48;;;;;;;1.17;0.90;;;20.70;1.00;;;;;;5099717;28;20445;-74
2022/06/16 01:57:25;;;;;;;1.07;0.90;;;20.70;1.00;;;;;;5099465;28;20481;-74
2022/06/16 02:00:02;;;;;;;1.30;0.90;;;20.70;1.00;;;;;;5099056;28;20453;-74
2022/06/16 02:02:34;;;;;;;1.27;0.90;;;20.60;1.00;;;;;;5099337;28;20441;-74
2022/06/16 02:05:07;;;;;;;1.30;0.80;;;20.60;1.00;;;;;;5098805;28;20422;-74
2022/06/16 02:07:39;;;;;;;1.37;1.00;;;20.60;1.00;;;;;;5098066;28;20464;-74
2022/06/16 02:10:13;;;;;;;1.20;1.00;;;20.60;1.00;;;;;;5098957;28;20481;-74
2022/06/16 02:13:00;;;;;;;1.07;0.80;;;20.60;1.00;;;;;;5098318;28;20951;-74
2022/06/16 02:15:35;;;;;;;3.00;0.80;;;20.60;1.00;;;;;;5098154;28;20771;-74
2022/06/16 02:18:09;;;;;;;1.30;0.90;;;20.60;1.00;;;;;;5098259;28;20480;-74
2022/06/16 02:20:47;;;;;;;1.87;0.90;;;20.60;1.00;;;;;;5097467;28;20756;-74
2022/06/16 02:23:20;;;;;;;1.17;0.70;;;20.60;1.00;;;;;;5097565;28;20444;-74
2022/06/16 02:25:54;;;;;;;1.10;0.90;;;20.60;1.00;;;;;;5097738;28;20445;-74
2022/06/16 02:28:22;;;;;;;1.20;0.90;;;20.50;1.00;;;;;;5097875;28;20445;-75
2022/06/16 02:31:16;;;;;;;1.03;0.90;;;20.50;1.00;;;;;;5079170;28;20544;-74
2022/06/16 02:34:00;;;;;;;2.07;1.00;;;20.50;1.00;;;;;;5087738;28;20446;-74
2022/06/16 02:36:49;;;;;;;1.20;0.90;;;20.50;1.00;;;;;;5098221;28;20441;-74
2022/06/16 02:39:26;;;;;;;2.10;0.80;;;20.50;1.00;;;;;;5098085;28;20492;-74
2022/06/16 02:42:02;;;;;;;1.33;1.00;;;20.40;1.00;;;;;;5097796;28;20556;-74
2022/06/16 02:44:45;;;;;;;1.00;0.80;;;20.40;1.00;;;;;;5097759;28;20453;-74
2022/06/16 02:50:11;;;;;;;1.03;0.73;;;20.40;1.00;;;;;;5097542;28;20519;-74
2022/06/16 02:52:40;;;;;;;1.13;0.80;;;20.40;1.00;;;;;;5098246;28;20446;-74
2022/06/16 02:55:12;;;;;;;1.40;0.90;;;20.40;1.00;;;;;;5098086;28;20835;-73
2022/06/16 02:57:45;;;;;;;1.50;0.90;;;20.40;1.00;;;;;;5096153;28;20480;-75
2022/06/16 03:00:17;;;;;;;1.43;0.80;;;20.40;1.00;;;;;;5095298;28;20458;-76
2022/06/16 03:02:45;;;;;;;1.20;0.80;;;20.40;1.00;;;;;;5095528;28;20461;-75
2022/06/16 03:05:15;;;;;;;1.50;0.90;;;20.20;1.00;;;;;;5095856;28;20426;-75
2022/06/16 03:07:45;;;;;;;1.30;0.90;;;20.10;1.00;;;;;;5096108;28;20876;-74
2022/06/16 03:10:50;;;;;;;3.03;1.07;;;20.10;1.00;;;;;;5095648;28;20475;-74
2022/06/16 03:13:02;;;;;;;1.30;0.83;;;20.10;1.00;;;;;;5096167;28;20493;-74
2022/06/16 03:15:31;;;;;;;1.20;0.90;;;20.10;1.00;;;;;;5097598;28;20454;-74
2022/06/16 03:18:06;;;;;;;1.40;0.93;;;20.10;1.00;;;;;;5097549;28;20489;-74
2022/06/16 03:20:37;;;;;;;1.33;0.90;;;20.00;1.00;;;;;;5097436;28;20453;-74
2022/06/16 03:23:04;;;;;;;1.77;0.90;;;20.00;1.00;;;;;;5097919;28;20906;-74
2022/06/16 03:25:31;;;;;;;1.50;1.00;;;19.90;1.00;;;;;;5097410;28;20432;-74
2022/06/16 03:27:58;;;;;;;6.50;0.90;;;19.80;1.00;;;;;;5097999;28;20450;-74
2022/06/16 03:30:38;;;;;;;4.93;1.10;;;19.70;1.00;;;;;;5095578;28;20499;-74
2022/06/16 03:33:10;;;;;;;1.20;0.80;;;19.70;1.00;;;;;;5097643;28;20461;-74
2022/06/16 03:35:41;;;;;;;1.20;0.90;;;19.80;1.00;;;;;;5079494;28;20771;-75
2022/06/16 03:38:10;;;;;;;1.53;1.00;;;19.90;1.00;;;;;;5079366;28;20500;-75
2022/06/16 03:40:46;;;;;;;1.70;0.93;;;20.00;1.00;;;;;;5097394;28;20900;-75
2022/06/16 03:43:13;;;;;;;2.10;1.10;;;20.00;1.00;;;;;;5097058;28;20484;-74
2022/06/16 03:45:41;;;;;;;1.27;0.90;;;20.00;1.00;;;;;;5096779;28;20503;-73
2022/06/16 03:48:13;;;;;;;1.90;0.90;;;19.90;1.00;;;;;;5097584;28;20448;-74
2022/06/16 03:50:43;;;;;;;1.40;1.00;;;19.90;1.00;;;;;;5079276;28;20919;-74
2022/06/16 03:53:11;;;;;;;1.20;1.00;;;19.90;1.00;;;;;;5096761;28;20461;-73
2022/06/16 03:55:43;;;;;;;1.20;0.90;;;19.80;1.00;;;;;;5096171;28;20841;-74
2022/06/16 03:58:11;;;;;;;1.37;0.90;;;19.80;1.00;;;;;;5096992;28;20485;-74
2022/06/16 04:00:41;;;;;;;2.00;1.10;;;19.90;1.00;;;;;;5096471;28;20820;-74
2022/06/16 04:05:56;;;;;;;1.30;0.97;;;20.10;1.00;;;;;;5096750;28;20429;-73
2022/06/16 04:08:24;;;;;;;1.40;1.00;;;20.30;1.00;;;;;;5096801;28;20461;-73
2022/06/16 04:10:51;;;;;;;1.10;0.90;;;20.30;1.00;;;;;;5096718;28;20450;-73
2022/06/16 04:13:18;;;;;;;2.03;0.93;;;20.40;1.00;;;;;;5096327;28;20493;-74
2022/06/16 04:15:46;;;;;;;1.20;1.00;;;20.40;1.00;;;;;;5096009;28;20458;-74
2022/06/16 04:18:15;;;;;;;1.50;1.00;;;20.40;1.00;;;;;;5095249;28;20478;-74
2022/06/16 04:20:46;;;;;;;1.07;0.83;;;20.40;1.00;;;;;;5095006;28;20450;-73
2022/06/16 04:23:13;;;;;;;1.20;0.90;;;20.40;1.00;;;;;;5095024;28;20719;-74
2022/06/16 04:25:40;;;;;;;1.30;0.90;;;20.40;1.00;;;;;;5095237;28;20422;-74
2022/06/16 04:28:12;;;;;;;2.43;1.00;;;20.40;1.00;;;;;;5095543;28;20880;-74
2022/06/16 04:30:40;;;;;;;1.40;1.00;;;20.30;1.00;;;;;;5096245;28;20426;-74
2022/06/16 04:33:09;;;;;;;1.57;0.80;;;20.30;1.00;;;;;;5078821;28;20485;-74
2022/06/16 04:35:38;;;;;;;1.97;0.90;;;20.40;1.00;;;;;;5097710;28;20832;-74
2022/06/16 04:38:05;;;;;;;1.10;0.90;;;20.60;1.00;;;;;;5098140;28;20481;-74
2022/06/16 04:40:33;;;;;;;1.10;0.90;;;20.80;1.00;;;;;;5098515;28;20817;-75
2022/06/16 04:43:01;;;;;;;1.10;0.90;;;20.90;1.00;;;;;;5098375;28;20446;-75
2022/06/16 04:45:28;;;;;;;1.73;1.13;;;21.00;1.00;;;;;;5097785;28;20449;-75
2022/06/16 04:47:56;;;;;;;2.40;0.90;;;20.80;1.00;;;;;;5097213;28;20441;-74
2022/06/16 04:50:25;;;;;;;1.17;0.83;;;20.80;1.00;;;;;;5097816;28;20532;-75
2022/06/16 04:52:55;;;;;;;2.80;0.80;;;20.90;1.00;;;;;;5097021;28;20514;-74
2022/06/16 04:55:22;;;;;;;1.47;1.00;;;20.90;1.00;;;;;;5098844;28;20768;-74
2022/06/16 04:57:54;;;;;;;1.20;0.90;;;21.10;1.00;;;;;;5099835;28;20460;-73
2022/06/16 05:00:22;;;;;;;1.27;0.80;;;21.20;1.00;;;;;;5099404;28;20433;-74
2022/06/16 05:02:49;;;;;;;1.80;1.00;;;21.30;1.00;;;;;;5100245;28;20550;-74
2022/06/16 05:05:16;;;;;;;1.87;0.90;;;21.30;1.00;;;;;;5099958;28;20807;-75
2022/06/16 05:07:52;;;;;;;1.67;0.93;;;21.30;1.00;;;;;;5100047;28;20461;-74
2022/06/16 05:10:21;;;;;;;1.10;0.90;;;21.20;1.00;;;;;;5084055;28;20471;-74
2022/06/16 05:12:48;;;;;;;1.40;0.80;;;21.10;1.00;;;;;;5100435;28;20473;-75
2022/06/16 05:15:16;;;;;;;3.63;1.10;;;21.10;1.00;;;;;;5100015;28;20511;-75
2022/06/16 05:17:46;;;;;;;1.93;1.10;;;21.20;1.00;;;;;;5099795;28;20445;-75
2022/06/16 05:20:17;;;;;;;1.07;0.90;;;21.00;1.00;;;;;;5100367;28;20519;-75
2022/06/16 05:22:44;;;;;;;1.60;1.00;;;21.00;1.00;;;;;;5099876;28;20445;-73
2022/06/16 05:25:12;;;;;;;1.30;0.90;;;21.10;1.00;;;;;;5099937;28;20449;-73
2022/06/16 05:27:41;;;;;;;2.97;1.30;;;21.30;1.00;;;;;;5099556;28;20434;-73
2022/06/16 05:30:11;;;;;;;1.93;1.10;;;21.40;1.00;;;;;;5099316;28;20503;-76
2022/06/16 05:32:39;;;;;;;1.40;1.00;;;21.40;1.00;;;;;;5099697;28;20463;-75
2022/06/16 05:35:07;;;;;;;1.80;1.00;;;21.40;1.00;;;;;;5099990;28;20449;-76
2022/06/16 05:37:36;;;;;;;1.10;0.90;;;21.40;1.00;;;;;;5100022;28;20545;-73
2022/06/16 05:40:06;;;;;;;1.70;1.00;;;21.40;1.00;;;;;;5099260;28;20473;-76
2022/06/16 05:42:36;;;;;;;1.90;1.00;;;21.50;1.00;;;;;;5098662;28;20461;-76
2022/06/16 05:45:10;;;;;;;1.40;0.93;;;21.50;1.00;;;;;;5098670;28;20521;-75
2022/06/16 05:47:37;;;;;;;1.10;0.90;;;21.60;1.00;;;;;;5098693;28;20453;-74
2022/06/16 05:50:05;;;;;;;3.10;1.10;;;21.80;1.00;;;;;;5099165;28;20477;-74
2022/06/16 05:52:32;;;;;;;3.63;1.10;;;22.00;1.00;;;;;;5098314;28;20449;-74
2022/06/16 05:55:00;;;;;;;1.30;1.00;;;22.10;1.00;;;;;;5098696;28;20454;-73
2022/06/16 05:57:27;;;;;;;1.20;1.00;;;22.20;1.00;;;;;;5098797;28;20461;-74
2022/06/16 05:59:55;;;;;;;1.03;0.90;;;22.20;1.00;;;;;;5080519;28;20489;-74
2022/06/16 06:02:24;;;;;;;1.30;1.13;;;22.20;1.00;;;;;;5099138;28;20457;-76
2022/06/16 06:04:51;;;;;;;2.40;1.20;;;22.10;1.00;;;;;;5098836;28;20430;-74
2022/06/16 06:07:19;;;;;;;1.77;1.10;;;22.00;1.00;;;;;;5097215;28;20516;-74
2022/06/16 06:18:24;;;;;;;1.87;1.00;;;21.50;1.00;;;;;;5098903;28;20745;-74
2022/06/16 06:20:52;;;;;;;1.27;1.00;;;21.50;1.00;;;;;;5080987;28;20810;-76
2022/06/16 06:23:19;;;;;;;1.20;1.10;;;21.60;1.00;;;;;;5098985;28;20458;-76
2022/06/16 06:25:47;;;;;;;1.43;1.20;;;21.60;1.00;;;;;;5098992;28;20925;-73
2022/06/16 06:28:19;;;;;;;1.10;0.80;;;21.60;1.00;;;;;;5098769;28;20461;-75
2022/06/16 06:30:46;;;;;;;2.13;1.00;;;21.70;1.00;;;;;;5080727;28;20445;-76
2022/06/16 06:33:13;;;;;;;1.20;1.10;;;21.80;1.00;;;;;;5098889;28;20438;-77
2022/06/16 06:35:42;;;;;;;1.30;1.00;;;21.80;1.00;;;;;;5098695;28;20790;-76
2022/06/16 06:38:09;;;;;;;1.47;0.97;;;22.00;1.00;;;;;;5099222;28;20864;-77
2022/06/16 06:43:43;;;;;;;1.23;0.90;;;22.40;1.00;;;;;;5098532;28;20457;-78
2022/06/16 06:52:39;;;;;;;1.70;0.93;;;23.10;1.00;;;;;;5096210;28;20877;-76
2022/06/16 06:58:22;;;;;;;1.20;0.90;;;23.50;1.00;;;;;;5095021;28;20532;-76
2022/06/16 07:03:41;;;;;;;1.30;0.93;;;23.60;1.00;;;;;;5097124;28;20434;-74
2022/06/16 07:06:12;;;;;;;2.17;0.90;;;23.70;1.00;;;;;;5078328;28;20440;-74
2022/06/16 07:08:40;;;;;;;1.20;0.80;;;23.80;1.00;;;;;;5096977;28;20446;-73
2022/06/16 07:11:10;;;;;;;1.50;1.40;;;23.90;1.00;;;;;;5097443;28;20567;-74
2022/06/16 07:13:42;;;;;;;1.00;0.90;;;24.00;1.00;;;;;;5097622;28;20497;-75
2022/06/16 07:16:10;;;;;;;1.90;1.10;;;23.90;1.00;;;;;;5097110;28;20887;-73
2022/06/16 07:18:37;;;;;;;1.30;1.10;;;23.90;1.00;;;;;;5096024;28;20426;-76
2022/06/16 07:21:05;;;;;;;3.30;2.27;;;23.90;1.00;;;;;;5097180;28;20454;-75
2022/06/16 07:23:32;;;;;;;2.03;1.20;;;24.10;1.00;;;;;;5096957;28;20809;-75
2022/06/16 07:25:59;;;;;;;2.60;1.10;;;24.30;1.00;;;;;;5095794;28;20430;-75
2022/06/16 07:28:28;;;;;;;1.83;1.10;;;24.50;1.00;;;;;;5096172;28;20426;-75
2022/06/16 07:30:55;;;;;;;2.17;1.10;;;24.70;1.00;;;;;;5096778;28;20474;-75
2022/06/16 07:33:23;;;;;;;1.10;1.00;;;24.80;1.00;;;;;;5095207;28;20453;-75
2022/06/16 07:35:52;;;;;;;1.63;1.10;;;24.80;1.00;;;;;;5097123;28;20540;-75
2022/06/16 07:38:20;;;;;;;1.43;1.20;;;24.70;1.00;;;;;;5096726;28;20758;-75
2022/06/16 07:40:48;;;;;;;2.10;1.10;;;24.70;1.00;;;;;;5097240;28;20963;-74
2022/06/16 07:43:15;;;;;;;1.13;0.90;;;24.80;1.00;;;;;;5097243;28;20445;-74
2022/06/16 07:45:45;;;;;;;1.10;0.90;;;24.80;1.00;;;;;;5096491;28;20445;-74
2022/06/16 07:48:15;;;;;;;1.20;0.90;;;24.90;1.00;;;;;;5096634;28;20748;-74
2022/06/16 07:50:42;;;;;;;1.40;0.80;;;24.90;1.00;;;;;;5095354;28;20930;-74
2022/06/16 07:53:12;;;;;;;1.97;1.20;;;25.00;1.00;;;;;;5095749;28;20461;-74
2022/06/16 07:55:40;;;;;;;1.50;1.20;;;25.10;1.00;;;;;;5078859;28;20881;-74
2022/06/16 07:58:08;;;;;;;1.20;1.10;;;25.20;1.00;;;;;;5097533;28;20430;-73
2022/06/16 08:00:36;;;;;;;1.30;1.10;;;25.20;1.00;;;;;;5097027;28;20480;-74
2022/06/16 08:03:07;;;;;;;1.00;0.90;;;25.10;1.00;;;;;;5096511;28;20474;-74
2022/06/16 08:05:37;;;;;;;1.20;1.00;;;25.10;1.00;;;;;;5078274;28;20438;-74
2022/06/16 08:10:48;;;;;;;2.00;1.27;;;25.20;1.00;;;;;;5096466;28;20741;-74
2022/06/16 08:13:24;;;;;;;1.20;1.10;;;25.30;1.00;;;;;;5096158;28;20481;-74
2022/06/16 08:15:52;;;;;;;1.20;1.03;;;25.20;1.00;;;;;;5078457;28;20445;-74
2022/06/16 08:24:20;;;;;;;1.40;1.20;;;25.50;1.00;;;;;;5077272;28;20445;-74
2022/06/16 08:26:50;;;;;;;3.90;1.20;;;25.70;1.00;;;;;;5096515;28;20500;-74
2022/06/16 08:32:22;;;;;;;1.80;1.40;;;25.60;1.00;;;;;;5090874;28;20437;-75
2022/06/16 08:37:58;;;;;;;1.20;1.10;;;25.60;1.00;;;;;;5095316;28;20622;-73
2022/06/16 08:40:26;;;;;;;1.50;1.10;;;25.40;1.00;;;;;;5096710;28;20528;-73
2022/06/16 08:42:58;;;;;;;1.50;1.40;;;25.30;1.00;;;;;;5097302;28;20458;-72
2022/06/16 08:45:34;;;;;;;1.87;1.00;;;25.40;1.00;;;;;;5096418;28;20455;-73
2022/06/16 08:48:15;;;;;;;1.00;0.90;;;25.30;1.00;;;;;;5095851;28;20452;-75
2022/06/16 08:50:49;;;;;;;1.97;1.07;;;25.10;1.00;;;;;;5096171;28;20446;-75
2022/06/16 08:53:31;;;;;;;1.63;1.20;;;25.00;1.00;;;;;;5096464;28;20446;-73
2022/06/16 08:56:04;;;;;;;1.47;1.10;;;24.90;1.00;;;;;;5097210;28;20522;-72
2022/06/16 08:58:41;;;;;;;1.70;0.97;;;25.00;1.00;;;;;;5098667;28;20529;-74
2022/06/16 09:01:13;;;;;;;1.30;1.20;;;25.20;1.00;;;;;;5098404;28;20499;-73
2022/06/16 09:03:46;;;;;;;3.07;1.10;;;25.30;1.00;;;;;;5097054;28;20816;-72
2022/06/16 09:06:28;;;;;;;1.10;1.00;;;25.50;1.00;;;;;;5096500;28;20429;-73
2022/06/16 09:09:02;;;;;;;2.80;1.50;;;25.60;1.00;;;;;;5096438;28;20481;-74
2022/06/16 09:11:36;;;;;;;1.40;1.00;;;25.90;1.00;;;;;;5096709;28;20476;-75
2022/06/16 09:15:10;;;;;;;3.00;1.10;;;26.00;1.00;;;;;;5095781;28;20503;-75
2022/06/16 09:17:21;;;;;;;1.30;1.00;;;26.20;1.00;;;;;;5095108;28;20860;-74
2022/06/16 09:20:00;;;;;;;1.00;0.90;;;26.20;1.00;;;;;;5095102;28;20517;-73
2022/06/16 09:22:43;;;;;;;1.40;0.90;;;26.10;1.00;;;;;;5096008;28;20464;-73
2022/06/16 09:25:25;;;;;;;1.30;1.07;;;26.00;1.00;;;;;;5096281;28;20888;-73
2022/06/16 09:27:58;;;;;;;1.20;1.10;;;26.10;1.00;;;;;;5096595;28;20461;-73
2022/06/16 09:30:30;;;;;;;1.10;0.93;;;26.30;1.00;;;;;;5096021;28;20607;-74
2022/06/16 09:33:02;;;;;;;1.00;0.90;;;26.50;1.00;;;;;;5095878;28;20508;-73
2022/06/16 09:35:34;;;;;;;1.37;1.00;;;26.70;1.00;;;;;;5092503;28;20861;-73
2022/06/16 09:38:08;;;;;;;2.53;1.00;;;26.70;1.00;;;;;;5095310;28;20545;-73
2022/06/16 09:40:40;;;;;;;1.10;1.00;;;26.70;1.00;;;;;;5085529;28;20477;-73
2022/06/16 09:43:11;;;;;;;2.90;1.10;;;26.80;1.00;;;;;;5094238;28;20928;-73
2022/06/16 09:45:43;;;;;;;1.20;1.10;;;26.80;1.00;;;;;;5100071;28;20508;-74
2022/06/16 09:48:16;;;;;;;1.20;1.10;;;26.90;1.00;;;;;;5099594;28;20761;-74
2022/06/16 09:50:48;;;;;;;1.30;0.93;;;27.10;1.00;;;;;;5098535;28;20449;-74
2022/06/16 09:53:25;;;;;;;2.57;1.20;;;27.40;1.00;;;;;;5096767;28;20914;-73
2022/06/16 09:55:57;;;;;;;1.70;1.00;;;27.40;1.00;;;;;;5096261;28;20461;-73
2022/06/16 09:58:31;;;;;;;1.10;1.00;;;27.30;1.00;;;;;;5093658;28;20457;-73
2022/06/16 10:01:01;;;;;;;1.30;1.00;;;27.50;1.00;;;;;;5095839;28;20580;-73
2022/06/16 10:03:34;;;;;;;2.70;1.20;;;27.50;1.00;;;;;;5083695;28;20494;-75
2022/06/16 10:06:12;;;;;;;1.20;1.00;;;27.60;1.00;;;;;;5095649;28;20446;-74
2022/06/16 10:08:47;;;;;;;1.30;1.20;;;27.90;1.00;;;;;;5085626;28;20530;-75
2022/06/16 10:11:26;;;;;;;3.03;1.33;;;28.20;1.00;;;;;;5098292;28;20441;-74
2022/06/16 10:14:02;;;;;;;1.90;1.30;;;28.00;1.00;;;;;;5093528;28;20506;-74
2022/06/16 10:16:50;;;;;;;1.13;1.03;;;28.10;1.00;;;;;;5098546;28;20944;-74
2022/06/16 10:19:18;;;;;;;1.30;1.07;;;28.40;1.00;;;;;;5098642;28;20485;-75
2022/06/16 10:21:46;;;;;;;1.13;1.00;;;28.60;1.00;;;;;;5098174;28;20482;-74
2022/06/16 10:24:17;;;;;;;1.27;1.07;;;28.90;1.00;;;;;;5098037;28;20529;-74
2022/06/16 10:26:44;;;;;;;1.70;1.20;;;29.20;1.00;;;;;;5076376;28;20555;-75
2022/06/16 10:29:22;;;;;;;1.10;1.00;;;29.40;1.00;;;;;;5098138;28;20450;-73
2022/06/16 10:31:51;;;;;;;1.40;0.90;;;29.50;1.00;;;;;;5078012;28;20881;-73
2022/06/16 10:34:27;;;;;;;1.40;1.10;;;29.50;1.00;;;;;;5080183;28;20458;-72
2022/06/16 10:37:01;;;;;;;1.40;1.00;;;29.30;1.00;;;;;;5092805;28;20445;-73
2022/06/16 10:39:38;;;;;;;1.20;0.90;;;29.60;1.00;;;;;;5094667;28;20535;-72
2022/06/16 10:42:13;;;;;;;1.10;1.00;;;30.10;1.00;;;;;;5096426;28;20453;-72
2022/06/16 10:44:46;;;;;;;1.27;1.10;;;30.30;1.00;;;;;;5096649;28;20503;-74
2022/06/16 10:47:20;;;;;;;1.87;1.00;;;30.00;1.00;;;;;;5078204;28;20530;-74
2022/06/16 10:49:49;;;;;;;1.20;0.90;;;29.40;1.00;;;;;;5076323;28;20497;-74
2022/06/16 10:52:30;;;;;;;1.40;1.10;;;29.00;1.00;;;;;;5086333;28;20473;-74
2022/06/16 10:55:02;;;;;;;1.27;1.00;;;29.60;1.00;;;;;;5096521;28;20457;-74
2022/06/16 10:57:31;;;;;;;1.20;1.10;;;30.10;1.00;;;;;;5088097;28;20781;-74
2022/06/16 11:00:05;;;;;;;1.20;1.00;;;29.70;1.00;;;;;;5081139;28;20576;-74
2022/06/16 11:02:35;;;;;;;1.10;0.90;;;30.00;1.00;;;;;;5079871;28;20455;-74
2022/06/16 11:05:06;;;;;;;1.67;1.20;;;30.50;1.00;;;;;;5093804;28;20489;-72
2022/06/16 11:07:41;;;;;;;1.17;1.07;;;30.00;1.00;;;;;;5086208;28;20456;-72
2022/06/16 11:10:13;;;;;;;2.07;1.10;;;30.10;1.00;;;;;;5092162;28;20540;-72
2022/06/16 11:12:46;;;;;;;1.10;1.00;;;30.30;1.00;;;;;;5088364;28;20561;-72
2022/06/16 11:15:23;;;;;;;5.60;5.10;;;30.60;1.00;;;;;;5081872;28;20798;-72
2022/06/16 11:17:56;;;;;;;4.30;1.30;;;30.70;1.00;;;;;;5093468;28;20511;-75
2022/06/16 11:20:32;;;;;;;1.17;1.07;;;31.10;1.00;;;;;;5088867;28;20509;-73
2022/06/16 11:22:59;;;;;;;1.27;1.00;;;31.40;1.00;;;;;;5086483;28;20458;-74
2022/06/16 11:25:32;;;;;;;1.13;1.03;;;31.40;1.00;;;;;;5076883;28;20453;-73
2022/06/16 11:28:04;;;;;;;1.53;0.90;;;31.50;1.00;;;;;;5087045;28;20457;-73
2022/06/16 11:30:35;;;;;;;1.13;1.00;;;31.60;1.00;;;;;;5092631;28;20446;-74
2022/06/16 11:33:05;;;;;;;1.20;1.00;;;31.40;1.00;;;;;;5077193;28;20809;-75
2022/06/16 11:35:42;;;;;;;1.13;1.00;;;31.40;1.00;;;;;;5095454;28;20442;-73
2022/06/16 11:38:16;;;;;;;1.10;1.00;;;31.60;1.00;;;;;;5086525;28;20489;-75
2022/06/16 11:40:50;;;;;;;1.10;1.00;;;31.20;1.00;;;;;;5074844;28;21024;-75
2022/06/16 11:43:49;;;;;;;1.30;1.07;;;31.30;1.00;;;;;;5075527;28;20840;-74
2022/06/16 11:46:25;;;;;;;1.70;1.20;;;31.50;1.00;;;;;;5080498;28;20554;-74
2022/06/16 11:49:05;;;;;;;1.00;0.90;;;31.10;1.00;;;;;;5116850;28;20456;-75
2022/06/16 11:51:38;;;;;;;1.10;1.00;;;31.30;1.00;;;;;;5116634;28;20823;-74
2022/06/16 11:54:23;;;;;;;1.10;0.90;;;31.90;1.00;;;;;;5116406;28;20531;-74
2022/06/16 11:56:57;;;;;;;1.40;1.00;;;32.10;1.00;;;;;;5080958;28;20939;-75
2022/06/16 12:00:08;;;;;;;1.40;0.90;;;32.10;1.00;;;;;;5076632;28;20474;-74
2022/06/16 12:02:48;;;;;;;1.30;0.97;;;32.00;1.00;;;;;;5087379;28;20531;-74
2022/06/16 12:05:29;;;;;;;1.30;1.00;;;32.20;1.00;;;;;;5095285;28;20453;-75
2022/06/16 12:08:14;;;;;;;1.67;1.10;;;32.30;1.00;;;;;;5095654;28;20544;-74
2022/06/16 12:13:45;;;;;;;1.07;0.97;;;32.40;1.00;;;;;;5068287;28;20871;-75
2022/06/16 12:16:25;;;;;;;0.90;0.90;;;32.70;1.00;;;;;;5084557;28;20473;-74
2022/06/16 12:19:03;;;;;;;0.87;0.73;;;32.00;1.00;;;;;;5091571;28;20552;-74
2022/06/16 12:21:36;;;;;;;0.90;0.80;;;32.00;1.00;;;;;;5081539;28;21194;-74
2022/06/16 12:24:14;;;;;;;0.90;0.80;;;31.90;1.00;;;;;;5080230;28;20551;-74
2022/06/16 12:26:56;;;;;;;1.80;1.03;;;31.90;1.00;;;;;;5096725;28;20790;-73
2022/06/16 12:29:35;;;;;;;0.97;0.80;;;31.90;1.00;;;;;;5078455;28;20472;-74
2022/06/16 12:32:19;;;;;;;2.37;1.00;;;32.40;1.00;;;;;;5096412;28;20522;-73
2022/06/16 12:35:08;;;;;;;1.70;0.90;;;32.50;1.00;;;;;;5088046;28;20453;-73
2022/06/16 12:37:41;;;;;;;1.00;0.90;;;32.40;1.00;;;;;;5077427;28;20442;-73
2022/06/16 12:40:21;;;;;;;1.80;0.93;;;32.30;1.00;;;;;;5096410;28;20918;-74
2022/06/16 12:42:53;;;;;;;3.30;1.40;;;32.20;1.00;;;;;;5095766;28;20904;-74
2022/06/16 12:45:44;;;;;;;1.10;1.00;;;31.50;1.00;;;;;;5095875;28;20457;-74
2022/06/16 12:48:17;;;;;;;1.23;0.90;;;31.80;1.00;;;;;;5078454;28;20456;-73
2022/06/16 12:50:52;;;;;;;1.00;0.90;;;31.80;1.00;;;;;;5096345;28;20754;-74
2022/06/16 12:56:11;;;;;;;1.10;0.90;;;31.40;1.00;;;;;;5091779;28;20442;-74
2022/06/16 12:58:44;;;;;;;1.00;0.80;;;31.90;1.00;;;;;;5097595;28;20453;-74
2022/06/16 13:01:12;;;;;;;1.00;0.90;;;32.00;1.00;;;;;;5093486;28;20479;-75
2022/06/16 13:03:50;;;;;;;10.30;7.80;;;32.10;1.00;;;;;;5076394;28;20458;-74
2022/06/16 13:06:20;;;;;;;1.70;1.60;;;32.00;1.00;;;;;;5077802;28;20485;-75
2022/06/16 13:08:55;;;;;;;1.80;1.43;;;32.10;1.00;;;;;;5076928;28;20429;-74
2022/06/16 13:11:29;;;;;;;1.23;0.80;;;32.00;1.00;;;;;;5061161;28;20877;-73
2022/06/16 13:14:05;;;;;;;1.33;0.87;;;32.30;1.00;;;;;;5075615;28;20523;-74
2022/06/16 13:16:55;;;;;;;1.27;0.90;;;32.60;1.00;;;;;;5078737;28;20490;-74
2022/06/16 13:19:48;;;;;;;0.80;0.80;;;32.70;1.00;;;;;;5079797;28;20415;-74
2022/06/16 13:22:26;;;;;;;1.30;0.90;;;32.90;1.00;;;;;;5056319;28;20506;-75
2022/06/16 13:27:51;;;;;;;1.20;0.80;;;32.90;1.00;;;;;;5099876;28;20441;-75
2022/06/16 13:30:38;;;;;;;1.20;0.80;;;33.00;1.00;;;;;;5099255;28;20536;-73
2022/06/16 13:33:31;;;;;;;0.80;0.80;;;32.50;1.00;;;;;;5099518;28;20741;-75
2022/06/16 13:36:17;;;;;;;0.90;0.80;;;32.10;1.00;;;;;;5099471;28;20558;-73
2022/06/16 13:38:52;;;;;;;0.97;0.87;;;32.30;1.00;;;;;;5099392;28;20438;-74
2022/06/16 13:41:39;;;;;;;2.60;0.87;;;32.80;1.00;;;;;;5098838;28;20515;-74
2022/06/16 13:44:21;;;;;;;1.70;0.90;;;33.20;1.00;;;;;;5098348;28;20450;-73
2022/06/16 13:47:24;;;;;;;0.90;0.90;;;32.40;1.00;;;;;;5076979;28;20494;-73
2022/06/16 13:50:13;;;;;;;1.63;0.80;;;32.60;1.00;;;;;;5077567;28;20542;-73
2022/06/16 13:52:43;;;;;;;1.30;1.13;;;32.60;1.00;;;;;;5078676;28;20815;-74
2022/06/16 13:55:30;;;;;;;3.73;1.00;;;32.80;1.00;;;;;;5078026;28;20453;-74
2022/06/16 13:58:38;;;;;;;0.90;0.90;;;32.90;1.00;;;;;;5078624;28;20857;-73
2022/06/16 14:01:25;;;;;;;1.13;0.90;;;32.80;1.00;;;;;;5077974;28;20836;-73
2022/06/16 14:04:07;;;;;;;1.13;1.03;;;33.00;1.00;;;;;;5078131;28;20458;-74
2022/06/16 14:06:42;;;;;;;1.00;0.90;;;32.60;1.00;;;;;;5078207;28;20454;-75
2022/06/16 14:09:15;;;;;;;1.00;0.90;;;33.10;1.00;;;;;;5078835;28;20496;-74
2022/06/16 14:12:09;;;;;;;1.10;0.97;;;33.40;1.00;;;;;;5078269;28;20569;-74
2022/06/16 14:15:07;;;;;;;1.47;1.00;;;33.50;1.00;;;;;;5078691;28;20447;-74
2022/06/16 14:17:36;;;;;;;1.20;1.10;;;33.00;1.00;;;;;;5077915;28;20451;-74
2022/06/16 14:20:09;;;;;;;1.27;1.00;;;33.10;1.00;;;;;;5077057;28;20867;-74
2022/06/16 14:22:47;;;;;;;1.27;1.00;;;33.00;1.00;;;;;;5077558;28;20478;-74
2022/06/16 14:25:18;;;;;;;1.13;1.00;;;33.00;1.00;;;;;;5078013;28;20532;-74
2022/06/16 14:27:50;;;;;;;1.60;1.30;;;32.90;1.00;;;;;;5076040;28;20486;-74
2022/06/16 14:30:20;;;;;;;1.30;1.00;;;32.60;1.00;;;;;;5077542;28;20458;-73
2022/06/16 14:32:54;;;;;;;1.40;1.30;;;32.20;1.00;;;;;;5084519;28;20457;-74